createdAt,value
2023-04-30T00:01:02.167Z,27.08
2023-04-30T00:03:29.315Z,26.33
2023-04-30T00:05:56.426Z,32.92
2023-04-30T00:08:23.784Z,27.58
2023-04-30T00:10:51.666Z,31.67
2023-04-30T00:13:19.009Z,30.08
2023-04-30T00:15:46.128Z,28.60
2023-04-30T00:18:13.245Z,27.05
2023-04-30T00:20:40.407Z,29.25
2023-04-30T00:23:07.428Z,27.70
2023-04-30T00:25:35.398Z,27.55
2023-04-30T00:28:02.461Z,29.23
2023-04-30T00:30:29.509Z,24.20
2023-04-30T00:32:56.569Z,26.75
2023-04-30T00:35:23.709Z,24.15
2023-04-30T00:37:50.726Z,25.38
2023-04-30T00:40:17.849Z,27.63
2023-04-30T00:42:45.088Z,23.75
2023-04-30T00:45:12.137Z,25.35
2023-04-30T00:47:40.512Z,29.75
2023-04-30T00:50:07.807Z,31.10
2023-04-30T00:52:34.944Z,32.67
2023-04-30T00:55:02.326Z,26.98
2023-04-30T00:57:29.354Z,32.72
2023-04-30T00:59:56.787Z,32.55
2023-04-30T01:02:24.534Z,24.45
2023-04-30T01:04:51.932Z,26.65
2023-04-30T01:07:18.999Z,29.00
2023-04-30T01:09:46.254Z,29.10
2023-04-30T01:12:21.683Z,23.15
2023-04-30T01:15:29.194Z,30.33
2023-04-30T01:18:02.501Z,28.58
2023-04-30T01:20:31.005Z,26.13
2023-04-30T01:23:14.366Z,32.90
2023-04-30T01:25:58.399Z,24.50
2023-04-30T01:28:26.088Z,28.02
2023-04-30T01:30:53.239Z,24.92
2023-04-30T01:33:20.651Z,28.77
2023-04-30T01:36:15.817Z,23.08
2023-04-30T01:39:08.478Z,29.00
2023-04-30T01:41:58.428Z,26.05
2023-04-30T01:44:53.492Z,25.55
2023-04-30T01:47:40.520Z,26.20
2023-04-30T01:50:13.345Z,29.90
2023-04-30T01:52:46.716Z,33.72
2023-04-30T01:55:43.000Z,41.83
2023-04-30T01:58:13.211Z,34.15
2023-04-30T02:00:40.922Z,39.33
2023-04-30T02:03:08.387Z,38.97
2023-04-30T02:05:35.478Z,37.13
2023-04-30T02:08:03.162Z,37.22
2023-04-30T02:10:30.644Z,38.55
2023-04-30T02:12:57.782Z,41.50
2023-04-30T02:15:24.805Z,56.55
2023-04-30T02:17:51.955Z,44.38
2023-04-30T02:20:19.110Z,46.53
2023-04-30T02:22:46.618Z,46.83
2023-04-30T02:25:14.123Z,37.35
2023-04-30T02:27:41.171Z,59.08
2023-04-30T02:30:08.530Z,81.10
2023-04-30T02:32:35.843Z,95.40
2023-04-30T02:35:03.062Z,77.85
2023-04-30T02:37:30.256Z,76.07
2023-04-30T02:39:57.631Z,99.75
2023-04-30T02:42:26.026Z,70.45
2023-04-30T02:44:53.048Z,62.78
2023-04-30T02:47:20.181Z,89.45
2023-04-30T02:49:47.292Z,55.53
2023-04-30T02:52:14.337Z,59.95
2023-04-30T02:54:41.432Z,61.70
2023-04-30T02:57:08.448Z,70.25
2023-04-30T02:59:35.509Z,71.35
2023-04-30T03:02:02.731Z,65.10
2023-04-30T03:04:30.658Z,63.83
2023-04-30T03:06:57.663Z,64.85
2023-04-30T03:09:24.713Z,95.97
2023-04-30T03:11:51.797Z,116.15
2023-04-30T03:14:18.897Z,80.32
2023-04-30T03:16:46.039Z,81.20
2023-04-30T03:19:13.181Z,79.47
2023-04-30T03:21:41.043Z,61.22
2023-04-30T03:24:08.255Z,46.55
2023-04-30T03:26:35.402Z,56.03
2023-04-30T03:29:02.529Z,72.50
2023-04-30T03:31:29.577Z,62.42
2023-04-30T03:33:56.616Z,68.43
2023-04-30T03:36:23.885Z,54.40
2023-04-30T03:38:51.134Z,40.17
2023-04-30T03:41:18.701Z,45.35
2023-04-30T03:43:46.238Z,50.08
2023-04-30T03:46:13.224Z,49.20
2023-04-30T03:48:40.336Z,42.22
2023-04-30T03:51:07.509Z,45.38
2023-04-30T03:53:34.499Z,47.92
2023-04-30T03:56:01.991Z,42.25
2023-04-30T03:58:29.907Z,47.83
2023-04-30T04:00:57.134Z,79.55
2023-04-30T04:03:24.413Z,47.50
2023-04-30T04:05:51.492Z,57.00
2023-04-30T04:08:18.557Z,46.58
2023-04-30T04:10:45.741Z,52.88
2023-04-30T04:13:12.873Z,81.95
2023-04-30T04:15:40.604Z,130.90
2023-04-30T04:18:08.580Z,187.82
2023-04-30T04:20:36.266Z,121.57
2023-04-30T04:23:03.571Z,123.57
2023-04-30T04:25:30.546Z,103.95
2023-04-30T04:27:57.659Z,84.20
2023-04-30T04:30:24.867Z,103.82
2023-04-30T04:32:53.893Z,58.53
2023-04-30T04:35:21.176Z,65.82
2023-04-30T04:37:48.463Z,118.80
2023-04-30T04:40:15.563Z,52.08
2023-04-30T04:42:42.567Z,114.70
2023-04-30T04:45:09.886Z,81.53
2023-04-30T04:47:38.051Z,65.95
2023-04-30T04:50:05.625Z,101.10
2023-04-30T04:52:32.773Z,80.18
2023-04-30T04:54:59.793Z,135.00
2023-04-30T04:57:27.035Z,69.03
2023-04-30T04:59:54.413Z,57.13
2023-04-30T05:02:23.360Z,91.05
2023-04-30T05:04:51.431Z,81.38
2023-04-30T05:07:19.652Z,63.20
2023-04-30T05:09:46.989Z,61.47
2023-04-30T05:12:14.773Z,53.50
2023-04-30T05:14:42.911Z,61.90
2023-04-30T05:17:10.116Z,46.08
2023-04-30T05:19:37.138Z,52.53
2023-04-30T05:22:04.784Z,44.60
2023-04-30T05:24:31.821Z,54.83
2023-04-30T05:26:58.896Z,56.33
2023-04-30T05:29:25.888Z,36.88
2023-04-30T05:31:53.020Z,84.32
2023-04-30T05:34:20.299Z,74.45
2023-04-30T05:36:47.388Z,60.25
2023-04-30T05:39:14.377Z,45.50
2023-04-30T05:41:41.365Z,32.38
2023-04-30T05:44:08.406Z,50.05
2023-04-30T05:46:35.624Z,28.95
2023-04-30T05:49:02.680Z,47.42
2023-04-30T05:51:29.732Z,66.72
2023-04-30T05:53:57.534Z,25.35
2023-04-30T05:56:25.190Z,30.05
2023-04-30T05:58:52.560Z,38.42
2023-04-30T06:01:20.979Z,30.42
2023-04-30T06:03:48.017Z,25.20
2023-04-30T06:06:15.229Z,23.20
2023-04-30T06:08:45.086Z,31.83
2023-04-30T06:11:13.029Z,25.02
2023-04-30T06:13:40.563Z,41.65
2023-04-30T06:16:08.338Z,61.60
2023-04-30T06:18:35.685Z,36.35
2023-04-30T06:21:02.824Z,34.40
2023-04-30T06:23:29.998Z,31.77
2023-04-30T06:25:57.062Z,28.33
2023-04-30T06:28:24.216Z,30.00
2023-04-30T06:30:52.028Z,34.72
2023-04-30T06:33:19.101Z,34.03
2023-04-30T06:35:46.467Z,34.70
2023-04-30T06:38:14.224Z,37.13
2023-04-30T06:40:41.273Z,37.95
2023-04-30T06:43:08.282Z,34.55
2023-04-30T06:45:35.583Z,33.25
2023-04-30T06:48:02.825Z,50.70
2023-04-30T06:50:29.978Z,45.67
2023-04-30T06:52:56.993Z,61.10
2023-04-30T06:55:24.773Z,60.15
2023-04-30T06:57:52.061Z,69.35
2023-04-30T07:00:19.149Z,75.55
2023-04-30T07:02:47.954Z,82.93
2023-04-30T07:05:16.092Z,63.85
2023-04-30T07:07:43.217Z,70.68
2023-04-30T07:10:10.531Z,66.85
2023-04-30T07:12:37.570Z,56.60
2023-04-30T07:15:04.875Z,45.63
2023-04-30T07:17:31.970Z,47.67
2023-04-30T07:19:59.061Z,79.22
2023-04-30T07:22:26.131Z,50.55
2023-04-30T07:24:53.144Z,48.15
2023-04-30T07:27:20.330Z,41.25
2023-04-30T07:29:47.361Z,35.08
2023-04-30T07:32:15.160Z,44.17
2023-04-30T07:34:42.669Z,35.53
2023-04-30T07:37:09.889Z,32.33
2023-04-30T07:39:37.325Z,28.45
2023-04-30T07:42:04.730Z,23.77
2023-04-30T07:44:31.982Z,24.65
2023-04-30T07:46:58.976Z,24.02
2023-04-30T07:49:26.186Z,20.38
2023-04-30T07:51:53.275Z,25.92
2023-04-30T07:54:20.310Z,25.50
2023-04-30T07:56:48.837Z,15.70
2023-04-30T07:59:16.025Z,16.65
2023-04-30T08:01:43.208Z,17.27
2023-04-30T08:04:10.681Z,14.98
2023-04-30T08:06:37.859Z,12.43
2023-04-30T08:09:04.905Z,12.10
2023-04-30T08:11:31.909Z,12.38
2023-04-30T08:13:58.901Z,14.32
2023-04-30T08:16:25.959Z,16.05
2023-04-30T08:18:54.382Z,11.68
2023-04-30T08:21:21.639Z,14.38
2023-04-30T08:23:48.659Z,10.80
2023-04-30T08:26:15.688Z,11.52
2023-04-30T08:28:42.725Z,5.13
2023-04-30T08:31:09.890Z,8.07
2023-04-30T08:33:36.942Z,7.03
2023-04-30T08:36:04.253Z,7.90
2023-04-30T08:38:31.302Z,4.78
2023-04-30T08:41:11.323Z,8.55
2023-04-30T08:43:39.193Z,9.88
2023-04-30T08:46:07.219Z,4.60
2023-04-30T08:48:34.705Z,6.30
2023-04-30T08:51:03.157Z,4.72
2023-04-30T08:53:31.612Z,1.70
2023-04-30T08:55:59.020Z,2.05
2023-04-30T08:58:26.055Z,0.70
2023-04-30T09:00:53.069Z,1.48
2023-04-30T09:03:22.115Z,3.42
2023-04-30T09:05:49.212Z,1.90
2023-04-30T09:08:46.853Z,1.27
2023-04-30T09:11:27.524Z,1.48
2023-04-30T09:13:59.701Z,2.05
2023-04-30T09:16:31.293Z,2.13
2023-04-30T09:18:59.576Z,0.40
2023-04-30T09:21:34.712Z,2.13
2023-04-30T09:24:03.867Z,1.27
2023-04-30T09:26:36.552Z,1.38
2023-04-30T09:31:36.349Z,0.40
2023-04-30T09:34:04.741Z,0.77
2023-04-30T09:36:32.403Z,0.35
2023-04-30T09:39:09.888Z,0.38
2023-04-30T09:41:37.966Z,0.63
2023-04-30T09:44:05.407Z,0.10
2023-04-30T09:46:34.717Z,0.75
2023-04-30T09:49:03.807Z,0.20
2023-04-30T09:51:31.752Z,0.10
2023-04-30T09:54:02.757Z,1.17
2023-04-30T09:56:35.364Z,0.10
2023-04-30T10:01:33.342Z,0.52
2023-04-30T10:04:01.218Z,0.95
2023-04-30T10:06:29.756Z,0.65
2023-04-30T10:08:57.948Z,0.63
2023-04-30T10:11:28.302Z,0.75
2023-04-30T10:14:02.729Z,0.68
2023-04-30T10:17:07.352Z,0.20
2023-04-30T10:19:39.141Z,1.13
2023-04-30T10:22:06.312Z,2.90
2023-04-30T10:24:34.574Z,0.60
2023-04-30T10:27:01.692Z,0.52
2023-04-30T10:29:28.780Z,0.30
2023-04-30T10:31:56.961Z,0.30
2023-04-30T10:34:53.275Z,0.10
2023-04-30T10:37:45.182Z,0.17
2023-04-30T10:40:12.632Z,0.25
2023-04-30T10:42:45.864Z,0.45
2023-04-30T10:45:12.929Z,2.60
2023-04-30T10:47:43.106Z,0.32
2023-04-30T10:50:10.763Z,0.28
2023-04-30T10:52:39.150Z,1.10
2023-04-30T10:55:09.276Z,0.10
2023-04-30T10:57:43.741Z,0.20
2023-04-30T11:00:10.905Z,0.25
2023-04-30T11:02:47.162Z,0.63
2023-04-30T11:05:15.572Z,0.20
2023-04-30T11:07:56.839Z,0.20
2023-04-30T11:10:27.333Z,0.15
2023-04-30T11:12:55.672Z,0.73
2023-04-30T11:15:27.365Z,0.82
2023-04-30T11:17:59.486Z,0.25
2023-04-30T11:20:26.970Z,0.85
2023-04-30T11:23:19.751Z,1.02
2023-04-30T11:25:59.114Z,0.40
2023-04-30T11:28:27.412Z,0.52
2023-04-30T11:30:59.637Z,0.47
2023-04-30T11:33:29.131Z,0.22
2023-04-30T11:35:58.188Z,0.73
2023-04-30T11:38:36.355Z,1.65
2023-04-30T11:41:04.935Z,0.47
2023-04-30T11:43:34.326Z,0.90
2023-04-30T11:46:08.245Z,2.35
2023-04-30T11:48:37.515Z,0.20
2023-04-30T11:51:25.133Z,0.15
2023-04-30T11:53:53.425Z,0.20
2023-04-30T11:56:25.493Z,0.68
2023-04-30T11:58:53.841Z,0.17
2023-04-30T12:01:21.536Z,0.10
2023-04-30T12:03:50.843Z,0.40
2023-04-30T12:06:26.170Z,0.32
2023-04-30T12:08:54.745Z,0.85
2023-04-30T12:11:29.762Z,0.70
2023-04-30T12:14:05.412Z,1.15
2023-04-30T12:16:53.198Z,0.30
2023-04-30T12:19:25.035Z,2.95
2023-04-30T12:21:55.011Z,1.80
2023-04-30T12:24:23.529Z,0.47
2023-04-30T12:26:53.732Z,5.15
2023-04-30T12:29:23.057Z,0.52
2023-04-30T12:31:52.343Z,0.43
2023-04-30T12:34:19.493Z,0.60
2023-04-30T12:36:46.562Z,1.13
2023-04-30T12:39:17.999Z,0.45
2023-04-30T12:41:49.569Z,0.25
2023-04-30T12:44:20.868Z,6.75
2023-04-30T12:46:49.262Z,1.75
2023-04-30T12:49:29.932Z,0.40
2023-04-30T12:52:01.859Z,2.97
2023-04-30T12:54:30.721Z,3.78
2023-04-30T12:57:07.445Z,0.63
2023-04-30T12:59:51.690Z,1.05
2023-04-30T13:02:19.317Z,7.10
2023-04-30T13:04:46.400Z,3.45
2023-04-30T13:07:13.484Z,2.13
2023-04-30T13:09:40.736Z,0.85
2023-04-30T13:12:07.793Z,5.95
2023-04-30T13:14:35.200Z,4.03
2023-04-30T13:17:05.611Z,2.83
2023-04-30T13:19:33.997Z,4.85
2023-04-30T13:22:01.731Z,0.50
2023-04-30T13:24:28.891Z,0.20
2023-04-30T13:26:57.711Z,5.95
2023-04-30T13:29:25.314Z,1.33
2023-04-30T13:31:52.437Z,1.88
2023-04-30T13:34:19.571Z,0.70
2023-04-30T13:36:46.807Z,1.38
2023-04-30T13:39:14.008Z,4.32
2023-04-30T13:41:41.003Z,1.55
2023-04-30T13:44:09.413Z,1.92
2023-04-30T13:46:36.450Z,0.50
2023-04-30T13:49:03.551Z,2.28
2023-04-30T13:51:30.739Z,0.30
2023-04-30T13:53:57.992Z,2.85
2023-04-30T13:56:25.533Z,3.40
2023-04-30T13:58:52.650Z,3.35
2023-04-30T14:01:19.747Z,0.20
2023-04-30T14:03:47.201Z,0.82
2023-04-30T14:06:14.556Z,0.75
2023-04-30T14:08:41.680Z,0.80
2023-04-30T14:11:08.688Z,0.73
2023-04-30T14:13:35.783Z,0.30
2023-04-30T14:16:02.930Z,1.20
2023-04-30T14:18:29.989Z,1.50
2023-04-30T14:20:57.030Z,1.55
2023-04-30T14:23:24.036Z,0.35
2023-04-30T14:25:51.164Z,0.60
2023-04-30T14:28:18.203Z,3.10
2023-04-30T14:30:45.385Z,1.05
2023-04-30T14:33:12.699Z,0.60
2023-04-30T14:35:41.463Z,0.47
2023-04-30T14:38:08.499Z,1.30
2023-04-30T14:40:35.562Z,0.43
2023-04-30T14:43:02.537Z,3.17
2023-04-30T14:45:29.879Z,0.52
2023-04-30T14:47:56.959Z,0.30
2023-04-30T14:50:24.187Z,0.88
2023-04-30T14:52:51.525Z,2.88
2023-04-30T14:55:18.630Z,0.38
2023-04-30T14:57:45.639Z,0.47
2023-04-30T15:00:13.383Z,0.70
2023-04-30T15:02:40.641Z,1.75
2023-04-30T15:05:08.611Z,0.38
2023-04-30T15:07:36.740Z,1.20
2023-04-30T15:10:04.354Z,0.45
2023-04-30T15:12:31.490Z,1.08
2023-04-30T15:14:58.496Z,0.30
2023-04-30T15:17:25.699Z,2.47
2023-04-30T15:19:53.931Z,0.65
2023-04-30T15:22:22.447Z,0.85
2023-04-30T15:24:50.053Z,2.33
2023-04-30T15:27:17.142Z,0.77
2023-04-30T15:29:46.193Z,0.30
2023-04-30T15:32:13.790Z,1.75
2023-04-30T15:34:40.870Z,0.90
2023-04-30T15:37:07.938Z,1.83
2023-04-30T15:39:35.376Z,3.85
2023-04-30T15:42:02.362Z,0.50
2023-04-30T15:44:29.420Z,0.85
2023-04-30T15:46:56.701Z,0.73
2023-04-30T15:49:23.867Z,2.83
2023-04-30T15:51:51.262Z,2.40
2023-04-30T15:54:18.512Z,0.30
2023-04-30T15:56:45.559Z,2.28
2023-04-30T15:59:17.422Z,0.30
2023-04-30T16:01:45.528Z,0.30
2023-04-30T16:04:12.856Z,0.40
2023-04-30T16:06:40.077Z,0.77
2023-04-30T16:09:08.686Z,0.63
2023-04-30T16:11:36.124Z,0.88
2023-04-30T16:14:03.187Z,0.73
2023-04-30T16:16:30.350Z,1.27
2023-04-30T16:18:57.566Z,1.33
2023-04-30T16:21:24.599Z,0.32
2023-04-30T16:23:51.603Z,0.90
2023-04-30T16:26:18.649Z,0.40
2023-04-30T16:28:47.140Z,0.82
2023-04-30T16:31:15.577Z,0.80
2023-04-30T16:33:43.878Z,0.75
2023-04-30T16:36:11.058Z,0.65
2023-04-30T16:38:38.193Z,1.50
2023-04-30T16:41:05.540Z,1.80
2023-04-30T16:43:32.552Z,1.08
2023-04-30T16:45:59.632Z,5.38
2023-04-30T16:48:26.689Z,1.35
2023-04-30T16:50:53.671Z,1.55
2023-04-30T16:53:21.670Z,0.73
2023-04-30T16:55:48.699Z,0.90
2023-04-30T16:58:16.583Z,4.47
2023-04-30T17:00:43.583Z,2.00
2023-04-30T17:03:10.745Z,1.15
2023-04-30T17:05:37.874Z,0.50
2023-04-30T17:08:05.430Z,1.92
2023-04-30T17:10:32.566Z,2.78
2023-04-30T17:13:02.017Z,0.82
2023-04-30T17:15:29.263Z,1.58
2023-04-30T17:17:57.704Z,2.20
2023-04-30T17:20:24.840Z,2.78
2023-04-30T17:22:53.262Z,1.08
2023-04-30T17:25:20.485Z,1.80
2023-04-30T17:27:47.888Z,2.92
2023-04-30T17:30:15.302Z,0.82
2023-04-30T17:32:43.495Z,1.15
2023-04-30T17:35:10.849Z,0.45
2023-04-30T17:37:37.840Z,2.58
2023-04-30T17:40:05.741Z,3.42
2023-04-30T17:42:35.463Z,4.13
2023-04-30T17:45:02.526Z,2.92
2023-04-30T17:47:29.546Z,2.00
2023-04-30T17:49:57.258Z,4.28
2023-04-30T17:52:24.583Z,0.90
2023-04-30T17:54:51.848Z,1.35
2023-04-30T17:57:18.853Z,1.50
2023-04-30T17:59:45.910Z,0.93
2023-04-30T18:02:13.124Z,2.45
2023-04-30T18:04:40.208Z,2.80
2023-04-30T18:07:08.190Z,1.02
2023-04-30T18:09:35.896Z,1.67
2023-04-30T18:12:03.744Z,1.35
2023-04-30T18:14:30.857Z,3.15
2023-04-30T18:16:58.030Z,4.50
2023-04-30T18:19:25.311Z,2.42
2023-04-30T18:21:56.683Z,4.22
2023-04-30T18:24:28.275Z,0.30
2023-04-30T18:26:55.958Z,5.13
2023-04-30T18:29:23.492Z,3.95
2023-04-30T18:31:50.632Z,2.05
2023-04-30T18:34:17.673Z,1.17
2023-04-30T18:36:44.875Z,3.22
2023-04-30T18:39:12.366Z,0.75
2023-04-30T18:41:39.390Z,2.10
2023-04-30T18:44:09.476Z,3.05
2023-04-30T18:46:36.681Z,1.58
2023-04-30T18:49:05.355Z,1.55
2023-04-30T18:51:32.374Z,1.75
2023-04-30T18:53:59.917Z,3.13
2023-04-30T18:56:26.996Z,1.55
2023-04-30T18:58:54.055Z,3.55
2023-04-30T19:01:21.624Z,1.60
2023-04-30T19:03:48.749Z,1.63
2023-04-30T19:06:15.853Z,4.88
2023-04-30T19:08:45.600Z,1.15
2023-04-30T19:11:13.864Z,12.77
2023-04-30T19:13:40.978Z,4.05
2023-04-30T19:16:08.229Z,2.67
2023-04-30T19:18:36.351Z,3.20
2023-04-30T19:21:05.267Z,4.90
2023-04-30T19:23:32.358Z,4.57
2023-04-30T19:25:59.758Z,6.60
2023-04-30T19:28:27.220Z,5.93
2023-04-30T19:30:54.986Z,6.85
2023-04-30T19:33:23.218Z,6.50
2023-04-30T19:35:54.783Z,7.00
2023-04-30T19:38:21.994Z,5.20
2023-04-30T19:40:52.121Z,10.82
2023-04-30T19:43:20.026Z,7.30
2023-04-30T19:45:51.188Z,4.35
2023-04-30T19:48:18.396Z,4.32
2023-04-30T19:50:46.677Z,2.25
2023-04-30T19:53:14.973Z,5.05
2023-04-30T19:55:42.663Z,3.80
2023-04-30T19:58:10.067Z,3.90
2023-04-30T20:00:38.586Z,4.45
2023-04-30T20:03:05.829Z,3.03
2023-04-30T20:05:35.254Z,5.38
2023-04-30T20:08:03.457Z,11.68
2023-04-30T20:10:31.214Z,6.10
2023-04-30T20:12:58.252Z,8.55
2023-04-30T20:15:25.999Z,5.47
2023-04-30T20:17:53.273Z,4.30
2023-04-30T20:20:23.730Z,4.82
2023-04-30T20:22:52.631Z,7.45
2023-04-30T20:25:20.931Z,6.78
2023-04-30T20:27:48.211Z,5.68
2023-04-30T20:30:15.302Z,8.63
2023-04-30T20:32:42.357Z,6.63
2023-04-30T20:35:09.625Z,10.43
2023-04-30T20:37:37.578Z,8.57
2023-04-30T20:40:07.957Z,5.97
2023-04-30T20:42:35.624Z,6.38
2023-04-30T20:45:05.754Z,6.90
2023-04-30T20:47:33.204Z,5.63
2023-04-30T20:50:00.408Z,8.73
2023-04-30T20:52:27.712Z,4.20
2023-04-30T20:54:54.856Z,4.05
2023-04-30T20:57:21.920Z,11.90
2023-04-30T20:59:49.030Z,6.72
2023-04-30T21:02:16.318Z,11.00
2023-04-30T21:04:43.399Z,5.85
2023-04-30T21:07:10.382Z,8.82
2023-04-30T21:09:38.313Z,4.28
2023-04-30T21:12:06.159Z,5.85
2023-04-30T21:14:34.051Z,5.88
2023-04-30T21:17:01.307Z,6.47
2023-04-30T21:19:28.559Z,6.13
2023-04-30T21:21:55.675Z,5.05
2023-04-30T21:24:22.670Z,7.30
2023-04-30T21:26:49.641Z,11.65
2023-04-30T21:29:16.721Z,6.55
2023-04-30T21:31:44.208Z,5.30
2023-04-30T21:34:11.248Z,13.38
2023-04-30T21:36:38.230Z,9.00
2023-04-30T21:39:05.569Z,7.05
2023-04-30T21:41:32.871Z,7.50
2023-04-30T21:44:00.151Z,4.72
2023-04-30T21:46:27.382Z,8.20
2023-04-30T21:48:54.521Z,14.73
2023-04-30T21:51:22.188Z,6.35
2023-04-30T21:53:49.623Z,10.90
2023-04-30T21:56:16.743Z,4.38
2023-04-30T21:58:43.741Z,7.38
2023-04-30T22:01:12.264Z,6.03
2023-04-30T22:03:41.957Z,4.88
2023-04-30T22:06:09.068Z,6.28
2023-04-30T22:08:36.258Z,8.02
2023-04-30T22:11:04.554Z,9.20
2023-04-30T22:13:31.561Z,7.68
2023-04-30T22:15:58.723Z,5.70
2023-04-30T22:18:25.875Z,9.70
2023-04-30T22:20:52.953Z,5.55
2023-04-30T22:23:21.202Z,4.28
2023-04-30T22:25:48.667Z,8.18
2023-04-30T22:28:16.912Z,7.32
2023-04-30T22:30:45.085Z,7.18
2023-04-30T22:33:12.668Z,5.90
2023-04-30T22:35:39.926Z,5.03
2023-04-30T22:38:07.506Z,6.00
2023-04-30T22:40:38.391Z,6.93
2023-04-30T22:43:05.946Z,6.25
2023-04-30T22:45:36.919Z,10.23
2023-04-30T22:48:04.556Z,13.25
2023-04-30T22:50:31.908Z,9.38
2023-04-30T22:52:59.633Z,5.18
2023-04-30T22:55:27.209Z,5.38
2023-04-30T22:57:54.293Z,7.38
2023-04-30T23:00:21.281Z,8.70
2023-04-30T23:02:48.722Z,6.25
2023-04-30T23:05:15.940Z,9.90
2023-04-30T23:07:43.083Z,16.00
2023-04-30T23:10:10.715Z,7.18
2023-04-30T23:12:37.734Z,8.27
2023-04-30T23:15:05.193Z,7.10
2023-04-30T23:17:32.359Z,7.90
2023-04-30T23:19:59.410Z,5.95
2023-04-30T23:22:26.696Z,6.90
2023-04-30T23:24:55.377Z,6.95
2023-04-30T23:27:23.567Z,5.97
2023-04-30T23:29:50.713Z,6.63
2023-04-30T23:32:18.198Z,5.20
2023-04-30T23:34:45.294Z,4.07
2023-04-30T23:37:12.291Z,7.93
2023-04-30T23:39:39.373Z,5.13
2023-04-30T23:42:07.814Z,9.40
2023-04-30T23:44:34.866Z,7.32
2023-04-30T23:47:01.914Z,6.57
2023-04-30T23:49:28.969Z,6.40
2023-04-30T23:51:55.958Z,8.38
2023-04-30T23:54:23.231Z,4.40
2023-04-30T23:56:50.335Z,9.48
2023-04-30T23:59:17.317Z,6.70
